MZBZ/BZE METAR and TAF weather

Enter ICAO airport designator
Station Type Date Time Source
MZBZ METAR 2019/02/20 00:00 UTC NOAA

MZBZ 200000Z 11004KT 9999 FEW022 27/22 A2989 Q1012 NOSIG RMK HZY


Station Type Date Time Source
MZBZ Decoded METAR 2019/02/20 00:00 UTC NOAA

Belize / Phillip Goldston Intl. Airport, Belize (MZBZ) 17-32N 088-18W 5M
Feb 19, 2019 - 07:00 PM EST / 2019.02.20 0000 UTC
Wind: from the ESE (110 degrees) at 5 MPH (4 KT):0
Visibility: greater than 7 mile(s):0
Sky conditions: mostly clear
Temperature: 80 F (27 C)
Dew Point: 71 F (22 C)
Relative Humidity: 74%
Pressure (altimeter): 29.89 in. Hg (1012 hPa)
ob: MZBZ 200000Z 11004KT 9999 FEW022 27/22 A2989 Q1012 NOSIG RMK HZY
cycle: 0

Station Type Date Time Source
MZBZ TAF 2019/02/20 06:03 UTC NOAA

TAF TAF MZBZ 200300Z 2006/2106 12010KT 9999 FEW024


Example: see airport list